createdAt,value
2018-12-20T00:01:40.313Z,57.09
2018-12-20T00:05:44.472Z,57.03
2018-12-20T00:09:48.628Z,57.69
2018-12-20T00:13:54.052Z,58.17
2018-12-20T00:17:58.210Z,57.81
2018-12-20T00:22:02.362Z,58.14
2018-12-20T00:26:06.650Z,58.30
2018-12-20T00:30:10.726Z,58.95
2018-12-20T00:34:14.798Z,59.33
2018-12-20T00:38:18.996Z,59.31
2018-12-20T00:42:23.092Z,59.09
2018-12-20T00:46:27.658Z,59.32
2018-12-20T00:50:31.901Z,59.51
2018-12-20T00:54:36.773Z,58.97
2018-12-20T00:58:40.862Z,59.41
2018-12-20T01:02:44.956Z,59.69
2018-12-20T01:06:49.326Z,59.30
2018-12-20T01:10:53.423Z,60.84
2018-12-20T01:14:57.711Z,60.39
2018-12-20T01:19:02.053Z,60.15
2018-12-20T01:23:06.121Z,60.73
2018-12-20T01:27:10.260Z,60.62
2018-12-20T01:31:14.401Z,60.01
2018-12-20T01:35:18.518Z,59.80
2018-12-20T01:39:22.704Z,60.47
2018-12-20T01:43:26.931Z,59.10
2018-12-20T01:47:31.975Z,59.33
2018-12-20T01:51:36.098Z,58.61
2018-12-20T01:55:40.299Z,57.90
2018-12-20T01:59:44.675Z,57.93
2018-12-20T02:03:49.562Z,59.39
2018-12-20T02:07:53.700Z,58.57
2018-12-20T02:11:57.890Z,57.72
2018-12-20T02:16:01.961Z,57.60
2018-12-20T02:20:06.276Z,58.23
2018-12-20T02:24:11.230Z,57.53
2018-12-20T02:28:15.507Z,57.53
2018-12-20T02:32:19.740Z,57.12
2018-12-20T02:36:24.067Z,58.00
2018-12-20T02:40:28.328Z,57.51
2018-12-20T02:44:32.446Z,57.34
2018-12-20T02:48:36.743Z,57.54
2018-12-20T02:52:41.135Z,57.71
2018-12-20T02:56:45.411Z,58.57
2018-12-20T03:00:49.607Z,57.94
2018-12-20T03:04:53.849Z,59.01
2018-12-20T03:08:58.136Z,57.32
2018-12-20T03:13:02.666Z,57.87
2018-12-20T03:17:07.316Z,58.40
2018-12-20T03:21:11.686Z,58.86
2018-12-20T03:25:15.861Z,58.15
2018-12-20T03:29:19.938Z,57.74
2018-12-20T03:33:24.427Z,57.41
2018-12-20T03:37:28.723Z,58.08
2018-12-20T03:41:33.093Z,58.76
2018-12-20T03:45:37.362Z,59.26
2018-12-20T03:49:41.638Z,59.69
2018-12-20T03:53:45.809Z,58.73
2018-12-20T03:57:50.071Z,58.76
2018-12-20T04:01:54.497Z,58.75
2018-12-20T04:05:58.819Z,59.62
2018-12-20T04:10:03.285Z,58.51
2018-12-20T04:14:07.510Z,59.49
2018-12-20T04:18:11.646Z,58.89
2018-12-20T04:22:15.978Z,57.85
2018-12-20T04:26:20.384Z,59.12
2018-12-20T04:30:24.808Z,58.80
2018-12-20T04:34:29.049Z,58.48
2018-12-20T04:38:33.322Z,59.10
2018-12-20T04:42:37.633Z,58.38
2018-12-20T04:46:41.726Z,58.23
2018-12-20T04:50:46.336Z,58.11
2018-12-20T04:54:50.397Z,58.41
2018-12-20T04:58:54.638Z,58.11
2018-12-20T05:02:58.954Z,58.00
2018-12-20T05:07:03.365Z,58.40
2018-12-20T05:11:07.518Z,58.76
2018-12-20T05:15:12.128Z,58.08
2018-12-20T05:19:16.325Z,58.62
2018-12-20T05:23:20.629Z,58.16
2018-12-20T05:27:25.416Z,58.28
2018-12-20T05:31:29.526Z,58.07
2018-12-20T05:35:33.627Z,58.46
2018-12-20T05:39:37.753Z,56.99
2018-12-20T05:43:41.933Z,57.63
2018-12-20T05:47:46.057Z,57.75
2018-12-20T05:51:50.362Z,57.16
2018-12-20T05:55:54.770Z,58.52
2018-12-20T05:59:59.203Z,58.90
2018-12-20T06:04:03.403Z,58.25
2018-12-20T06:08:07.594Z,58.93
2018-12-20T06:12:12.058Z,58.04
2018-12-20T06:16:16.385Z,57.90
2018-12-20T06:20:20.716Z,58.90
2018-12-20T06:24:25.692Z,57.36
2018-12-20T06:28:29.821Z,58.86
2018-12-20T06:32:33.933Z,58.20
2018-12-20T06:36:38.039Z,57.98
2018-12-20T06:40:42.117Z,57.74
2018-12-20T06:44:46.920Z,59.20
2018-12-20T06:48:51.049Z,57.90
2018-12-20T06:52:55.148Z,58.38
2018-12-20T06:56:59.296Z,58.05
2018-12-20T07:01:03.453Z,56.89
2018-12-20T07:05:07.642Z,57.20
2018-12-20T07:09:11.754Z,57.22
2018-12-20T07:13:15.827Z,56.57
2018-12-20T07:17:20.007Z,56.72
2018-12-20T07:21:24.109Z,55.68
2018-12-20T07:25:28.268Z,54.67
2018-12-20T07:29:32.370Z,55.01
2018-12-20T07:33:36.472Z,54.65
2018-12-20T07:37:40.601Z,54.95
2018-12-20T07:41:44.734Z,54.55
2018-12-20T07:45:48.893Z,54.58
2018-12-20T07:49:52.998Z,55.46
2018-12-20T07:53:57.106Z,54.40
2018-12-20T07:58:01.246Z,54.43
2018-12-20T08:02:05.341Z,54.32
2018-12-20T08:06:09.414Z,53.47
2018-12-20T08:10:14.839Z,54.33
2018-12-20T08:14:19.074Z,53.64
2018-12-20T08:18:24.025Z,54.44
2018-12-20T08:22:28.119Z,53.80
2018-12-20T08:26:32.349Z,53.42
2018-12-20T08:30:36.466Z,53.50
2018-12-20T08:34:40.577Z,54.59
2018-12-20T08:38:44.662Z,53.96
2018-12-20T08:42:48.759Z,54.57
2018-12-20T08:46:54.507Z,55.19
2018-12-20T08:50:59.671Z,55.04
2018-12-20T08:55:05.345Z,56.26
2018-12-20T08:59:09.433Z,55.01
2018-12-20T09:03:13.530Z,54.28
2018-12-20T09:07:17.625Z,54.63
2018-12-20T09:11:22.107Z,54.94
2018-12-20T09:15:26.261Z,54.92
2018-12-20T09:19:30.340Z,54.37
2018-12-20T09:23:34.446Z,54.68
2018-12-20T09:27:38.525Z,55.52
2018-12-20T09:31:42.673Z,54.46
2018-12-20T09:35:46.753Z,54.72
2018-12-20T09:39:50.829Z,54.72
2018-12-20T09:43:54.926Z,53.93
2018-12-20T09:48:04.338Z,53.17
2018-12-20T09:52:08.445Z,53.04
2018-12-20T09:56:12.684Z,52.39
2018-12-20T10:00:16.773Z,51.67
2018-12-20T10:04:20.848Z,51.27
2018-12-20T10:08:24.919Z,49.84
2018-12-20T10:12:29.013Z,50.15
2018-12-20T10:16:33.743Z,50.16
2018-12-20T10:20:37.829Z,50.25
2018-12-20T10:24:42.268Z,50.41
2018-12-20T10:28:46.672Z,50.41
2018-12-20T10:32:50.766Z,50.44
2018-12-20T10:36:54.975Z,50.18
2018-12-20T10:40:59.061Z,50.71
2018-12-20T10:45:03.209Z,50.87
2018-12-20T10:49:07.459Z,50.72
2018-12-20T10:53:11.537Z,51.07
2018-12-20T10:57:15.698Z,49.84
2018-12-20T11:01:25.253Z,50.02
2018-12-20T11:05:35.000Z,50.12
2018-12-20T11:09:44.529Z,49.78
2018-12-20T11:13:55.349Z,51.05
2018-12-20T11:17:59.429Z,50.95
2018-12-20T11:22:03.625Z,51.24
2018-12-20T11:26:07.697Z,51.11
2018-12-20T11:30:11.964Z,50.52
2018-12-20T11:34:16.079Z,51.96
2018-12-20T11:38:20.210Z,51.51
2018-12-20T11:42:24.334Z,51.00
2018-12-20T11:46:28.505Z,51.52
2018-12-20T11:50:32.589Z,51.07
2018-12-20T11:54:36.662Z,50.68
2018-12-20T11:58:40.743Z,51.17
2018-12-20T12:02:44.976Z,51.57
2018-12-20T12:06:49.076Z,51.78
2018-12-20T12:10:53.189Z,51.36
2018-12-20T12:14:57.277Z,50.70
2018-12-20T12:19:01.448Z,49.71
2018-12-20T12:23:05.578Z,49.65
2018-12-20T12:27:09.672Z,50.26
2018-12-20T12:31:13.756Z,48.94
2018-12-20T12:35:17.955Z,49.30
2018-12-20T12:39:22.062Z,49.77
2018-12-20T12:43:26.145Z,49.67
2018-12-20T12:47:35.701Z,50.14
2018-12-20T12:51:39.790Z,49.74
2018-12-20T12:55:43.879Z,48.75
2018-12-20T12:59:48.101Z,49.10
2018-12-20T13:03:52.229Z,48.55
2018-12-20T13:07:56.312Z,47.18
2018-12-20T13:12:00.417Z,47.88
2018-12-20T13:16:04.883Z,46.71
2018-12-20T13:20:10.124Z,46.93
2018-12-20T13:24:14.355Z,47.81
2018-12-20T13:28:18.583Z,47.25
2018-12-20T13:32:22.808Z,48.41
2018-12-20T13:36:26.876Z,48.70
2018-12-20T13:40:30.967Z,50.31
2018-12-20T13:44:35.053Z,49.75
2018-12-20T13:48:39.290Z,49.84
2018-12-20T13:52:43.391Z,49.11
2018-12-20T13:56:47.544Z,48.65
2018-12-20T14:00:52.887Z,49.60
2018-12-20T14:04:56.993Z,49.26
2018-12-20T14:09:01.368Z,48.84
2018-12-20T14:13:05.724Z,49.88
2018-12-20T14:17:09.849Z,49.28
2018-12-20T14:21:14.113Z,50.66
2018-12-20T14:25:18.209Z,50.30
2018-12-20T14:29:22.375Z,50.13
2018-12-20T14:33:26.455Z,50.16
2018-12-20T14:37:30.546Z,50.46
2018-12-20T14:41:34.649Z,49.78
2018-12-20T14:45:38.735Z,50.28
2018-12-20T14:49:42.891Z,50.32
2018-12-20T14:53:47.047Z,50.46
2018-12-20T14:57:52.102Z,50.73
2018-12-20T15:01:56.265Z,51.41
2018-12-20T15:06:00.362Z,50.63
2018-12-20T15:10:07.841Z,50.40
2018-12-20T15:14:11.929Z,51.16
2018-12-20T15:18:16.031Z,51.47
2018-12-20T15:22:20.184Z,51.38
2018-12-20T15:26:24.250Z,51.84
2018-12-20T15:30:28.401Z,51.81
2018-12-20T15:34:32.480Z,52.61
2018-12-20T15:38:36.560Z,52.28
2018-12-20T15:42:40.770Z,53.05
2018-12-20T15:46:45.009Z,52.50
2018-12-20T15:50:49.112Z,52.16
2018-12-20T15:54:53.192Z,52.41
2018-12-20T15:58:57.307Z,53.00
2018-12-20T16:03:01.348Z,53.03
2018-12-20T16:07:05.563Z,52.11
2018-12-20T16:11:09.657Z,53.34
2018-12-20T16:15:13.726Z,52.85
2018-12-20T16:19:17.836Z,52.00
2018-12-20T16:23:21.909Z,51.94
2018-12-20T16:27:27.014Z,52.32
2018-12-20T16:31:31.633Z,53.90
2018-12-20T16:35:35.713Z,54.14
2018-12-20T16:39:39.853Z,54.00
2018-12-20T16:43:43.910Z,52.61
2018-12-20T16:47:48.116Z,52.63
2018-12-20T16:51:52.305Z,52.83
2018-12-20T16:55:56.466Z,52.74
2018-12-20T17:00:00.636Z,53.99
2018-12-20T17:04:04.721Z,54.28
2018-12-20T17:08:08.886Z,54.82
2018-12-20T17:12:14.030Z,54.17
2018-12-20T17:16:18.106Z,54.28
2018-12-20T17:20:22.190Z,55.25
2018-12-20T17:24:26.269Z,53.61
2018-12-20T17:28:30.371Z,53.94
2018-12-20T17:32:34.489Z,53.94
2018-12-20T17:36:38.652Z,54.45
2018-12-20T17:40:42.733Z,54.02
2018-12-20T17:44:46.889Z,53.66
2018-12-20T17:48:51.016Z,54.20
2018-12-20T17:52:55.100Z,53.61
2018-12-20T17:56:59.264Z,54.55
2018-12-20T18:01:03.417Z,53.83
2018-12-20T18:05:07.621Z,53.97
2018-12-20T18:09:12.265Z,53.72
2018-12-20T18:13:16.349Z,53.17
2018-12-20T18:17:21.599Z,52.74
2018-12-20T18:21:25.663Z,52.54
2018-12-20T18:25:29.773Z,52.90
2018-12-20T18:29:35.426Z,51.78
2018-12-20T18:33:39.583Z,51.63
2018-12-20T18:37:43.642Z,51.75
2018-12-20T18:41:47.749Z,52.50
2018-12-20T18:45:51.906Z,53.15
2018-12-20T18:49:56.019Z,52.73
2018-12-20T18:54:00.262Z,52.80
2018-12-20T18:58:04.362Z,52.80
2018-12-20T19:02:09.485Z,52.97
2018-12-20T19:06:13.566Z,52.40
2018-12-20T19:10:18.881Z,51.98
2018-12-20T19:14:23.028Z,51.97
2018-12-20T19:18:27.348Z,52.41
2018-12-20T19:22:31.456Z,52.31
2018-12-20T19:26:35.604Z,52.08
2018-12-20T19:30:39.728Z,52.04
2018-12-20T19:34:43.782Z,51.87
2018-12-20T19:38:48.012Z,51.89
2018-12-20T19:42:52.106Z,51.75
2018-12-20T19:46:56.938Z,52.40
2018-12-20T19:51:01.004Z,52.46
2018-12-20T19:55:06.236Z,51.49
2018-12-20T19:59:10.333Z,51.53
2018-12-20T20:03:14.417Z,51.49
2018-12-20T20:07:18.589Z,51.72
2018-12-20T20:11:22.963Z,51.16
2018-12-20T20:15:27.146Z,51.75
2018-12-20T20:19:31.239Z,51.65
2018-12-20T20:23:35.360Z,51.87
2018-12-20T20:27:39.443Z,51.04
2018-12-20T20:31:43.657Z,51.16
2018-12-20T20:35:47.829Z,51.50
2018-12-20T20:39:51.930Z,51.53
2018-12-20T20:43:56.027Z,51.78
2018-12-20T20:48:00.929Z,51.57
2018-12-20T20:52:04.989Z,52.29
2018-12-20T20:56:09.104Z,52.14
2018-12-20T21:00:13.903Z,51.23
2018-12-20T21:04:18.077Z,52.19
2018-12-20T21:08:23.364Z,51.89
2018-12-20T21:12:27.534Z,51.39
2018-12-20T21:16:31.629Z,51.18
2018-12-20T21:20:35.716Z,50.63
2018-12-20T21:24:39.859Z,50.01
2018-12-20T21:28:44.948Z,51.25
2018-12-20T21:32:49.004Z,52.26
2018-12-20T21:36:53.126Z,52.25
2018-12-20T21:40:57.413Z,52.81
2018-12-20T21:45:01.475Z,51.82
2018-12-20T21:49:05.551Z,52.03
2018-12-20T21:53:09.645Z,51.15
2018-12-20T21:57:13.734Z,51.82
2018-12-20T22:01:17.827Z,51.66
2018-12-20T22:05:21.893Z,52.57
2018-12-20T22:09:47.645Z,53.79
2018-12-20T22:18:47.765Z,52.65
2018-12-20T22:22:51.870Z,52.90
2018-12-20T22:31:48.447Z,52.36
2018-12-20T22:35:53.541Z,53.55
2018-12-20T22:39:58.644Z,53.50
2018-12-20T22:44:02.859Z,53.63
2018-12-20T22:48:07.010Z,53.08
2018-12-20T22:52:11.152Z,53.07
2018-12-20T22:56:15.262Z,53.13
2018-12-20T23:00:19.435Z,53.96
2018-12-20T23:04:23.582Z,53.95
2018-12-20T23:08:27.682Z,54.83
2018-12-20T23:12:31.741Z,55.95
2018-12-20T23:16:35.825Z,55.96
2018-12-20T23:20:39.944Z,55.01
2018-12-20T23:24:44.013Z,54.81
2018-12-20T23:28:48.228Z,54.63
2018-12-20T23:32:52.321Z,55.16
2018-12-20T23:36:56.500Z,55.09
2018-12-20T23:41:00.597Z,54.22
2018-12-20T23:45:05.898Z,54.26
2018-12-20T23:49:09.980Z,53.83
2018-12-20T23:53:14.080Z,54.20
2018-12-20T23:57:18.158Z,54.11
